createdAt,value
2023-05-09T00:00:03.665Z,101289.13
2023-05-09T00:02:30.306Z,101281.34
2023-05-09T00:04:56.886Z,101288.81
2023-05-09T00:07:23.313Z,101293.84
2023-05-09T00:09:49.717Z,101288.56
2023-05-09T00:12:16.155Z,101287.47
2023-05-09T00:14:45.312Z,101290.50
2023-05-09T00:17:14.515Z,101287.59
2023-05-09T00:19:41.810Z,101288.16
2023-05-09T00:22:09.202Z,101276.66
2023-05-09T00:24:35.740Z,101278.75
2023-05-09T00:27:02.119Z,101265.03
2023-05-09T00:29:28.544Z,101265.41
2023-05-09T00:31:55.039Z,101263.19
2023-05-09T00:34:21.835Z,101264.72
2023-05-09T00:36:48.280Z,101273.16
2023-05-09T00:39:14.713Z,101265.66
2023-05-09T00:41:41.168Z,101257.06
2023-05-09T00:44:07.688Z,101260.88
2023-05-09T00:46:34.328Z,101260.72
2023-05-09T00:49:00.800Z,101263.78
2023-05-09T00:51:28.490Z,101261.16
2023-05-09T00:53:55.013Z,101256.06
2023-05-09T00:56:22.017Z,101252.16
2023-05-09T00:58:48.791Z,101245.78
2023-05-09T01:01:16.392Z,101238.97
2023-05-09T01:03:43.700Z,101234.84
2023-05-09T01:06:39.648Z,101238.72
2023-05-09T01:09:14.775Z,101239.94
2023-05-09T01:11:52.507Z,101241.19
2023-05-09T01:14:37.008Z,101238.84
2023-05-09T01:17:16.245Z,101238.25
2023-05-09T01:20:05.796Z,101228.97
2023-05-09T01:22:37.182Z,101219.66
2023-05-09T01:25:31.111Z,101223.03
2023-05-09T01:28:14.987Z,101219.69
2023-05-09T01:30:46.756Z,101220.53
2023-05-09T01:33:17.989Z,101219.28
2023-05-09T01:35:49.687Z,101207.50
2023-05-09T01:38:19.758Z,101206.69
2023-05-09T01:40:51.820Z,101216.25
2023-05-09T01:43:19.977Z,101208.78
2023-05-09T01:45:48.106Z,101209.50
2023-05-09T01:48:15.634Z,101207.00
2023-05-09T01:50:44.181Z,101204.59
2023-05-09T01:53:11.668Z,101201.84
2023-05-09T01:55:41.007Z,101210.28
2023-05-09T01:58:08.189Z,101204.59
2023-05-09T02:00:35.068Z,101204.06
2023-05-09T02:03:03.970Z,101199.91
2023-05-09T02:05:32.031Z,101186.59
2023-05-09T02:07:59.556Z,101197.00
2023-05-09T02:10:29.227Z,101198.09
2023-05-09T02:12:56.637Z,101198.09
2023-05-09T02:15:24.454Z,101194.25
2023-05-09T02:17:50.948Z,101198.94
2023-05-09T02:20:17.665Z,101200.91
2023-05-09T02:22:44.959Z,101196.88
2023-05-09T02:25:16.075Z,101199.38
2023-05-09T02:27:45.490Z,101196.63
2023-05-09T02:30:18.654Z,101192.03
2023-05-09T02:32:48.931Z,101193.25
2023-05-09T02:35:17.326Z,101188.41
2023-05-09T02:37:45.773Z,101185.78
2023-05-09T02:40:13.370Z,101184.38
2023-05-09T02:42:39.951Z,101180.94
2023-05-09T02:45:07.710Z,101172.75
2023-05-09T02:47:34.176Z,101168.88
2023-05-09T02:50:00.622Z,101177.31
2023-05-09T02:52:27.128Z,101179.66
2023-05-09T02:54:53.562Z,101173.56
2023-05-09T02:57:19.988Z,101168.81
2023-05-09T02:59:46.474Z,101180.59
2023-05-09T03:02:12.876Z,101177.16
2023-05-09T03:04:39.341Z,101178.25
2023-05-09T03:07:05.794Z,101187.28
2023-05-09T03:09:32.253Z,101181.63
2023-05-09T03:11:58.631Z,101179.97
2023-05-09T03:14:25.035Z,101180.50
2023-05-09T03:16:51.511Z,101175.38
2023-05-09T03:19:17.922Z,101166.91
2023-05-09T03:21:44.316Z,101171.03
2023-05-09T03:24:10.876Z,101169.09
2023-05-09T03:26:37.389Z,101169.09
2023-05-09T03:29:04.442Z,101167.72
2023-05-09T03:31:30.891Z,101164.28
2023-05-09T03:33:57.684Z,101161.63
2023-05-09T03:36:24.401Z,101165.63
2023-05-09T03:38:50.805Z,101155.63
2023-05-09T03:41:17.926Z,101153.53
2023-05-09T03:43:44.823Z,101152.44
2023-05-09T03:46:11.241Z,101142.56
2023-05-09T03:48:37.625Z,101150.47
2023-05-09T03:51:04.058Z,101144.66
2023-05-09T03:53:30.477Z,101136.66
2023-05-09T03:55:56.892Z,101137.63
2023-05-09T03:58:23.295Z,101120.00
2023-05-09T04:00:49.868Z,101125.28
2023-05-09T04:03:16.444Z,101120.97
2023-05-09T04:05:42.967Z,101127.38
2023-05-09T04:08:09.420Z,101123.38
2023-05-09T04:10:35.838Z,101120.72
2023-05-09T04:13:02.265Z,101118.09
2023-05-09T04:15:28.739Z,101107.56
2023-05-09T04:17:55.217Z,101114.50
2023-05-09T04:20:21.692Z,101109.09
2023-05-09T04:22:48.122Z,101110.19
2023-05-09T04:25:15.985Z,101105.78
2023-05-09T04:27:42.693Z,101105.06
2023-05-09T04:30:10.361Z,101112.69
2023-05-09T04:32:36.840Z,101118.66
2023-05-09T04:35:04.041Z,101111.72
2023-05-09T04:37:32.582Z,101119.50
2023-05-09T04:39:59.040Z,101116.16
2023-05-09T04:42:25.674Z,101114.22
2023-05-09T04:44:52.460Z,101115.88
2023-05-09T04:47:18.874Z,101120.00
2023-05-09T04:49:45.324Z,101104.06
2023-05-09T04:52:11.765Z,101110.97
2023-05-09T04:54:38.156Z,101110.00
2023-05-09T04:57:14.198Z,101103.75
2023-05-09T04:59:44.125Z,101093.38
2023-05-09T05:02:10.717Z,101101.28
2023-05-09T05:04:37.168Z,101094.50
2023-05-09T05:07:03.629Z,101090.75
2023-05-09T05:09:30.011Z,101091.03
2023-05-09T05:12:01.800Z,101088.59
2023-05-09T05:14:28.998Z,101069.72
2023-05-09T05:16:55.486Z,101078.00
2023-05-09T05:19:21.937Z,101082.09
2023-05-09T05:21:48.353Z,101070.53
2023-05-09T05:24:14.765Z,101073.41
2023-05-09T05:26:41.245Z,101062.19
2023-05-09T05:29:07.704Z,101049.16
2023-05-09T05:31:34.243Z,101056.81
2023-05-09T05:34:00.688Z,101060.59
2023-05-09T05:36:27.099Z,101054.31
2023-05-09T05:38:53.541Z,101049.50
2023-05-09T05:41:19.986Z,101041.63
2023-05-09T05:43:46.437Z,101040.72
2023-05-09T05:46:12.931Z,101044.91
2023-05-09T05:48:39.475Z,101044.81
2023-05-09T05:51:06.449Z,101042.44
2023-05-09T05:53:32.932Z,101044.75
2023-05-09T05:55:59.639Z,101039.44
2023-05-09T05:58:26.506Z,101030.19
2023-05-09T06:00:53.084Z,101034.66
2023-05-09T06:03:19.742Z,101028.00
2023-05-09T06:05:47.435Z,101032.47
2023-05-09T06:08:13.933Z,101028.59
2023-05-09T06:10:40.428Z,101019.53
2023-05-09T06:13:07.218Z,101020.94
2023-05-09T06:15:33.702Z,101023.63
2023-05-09T06:18:00.353Z,101014.97
2023-05-09T06:20:27.189Z,101007.22
2023-05-09T06:22:53.748Z,101002.59
2023-05-09T06:25:20.197Z,101000.50
2023-05-09T06:27:46.646Z,101002.19
2023-05-09T06:30:24.494Z,100997.88
2023-05-09T06:32:51.720Z,100992.72
2023-05-09T06:35:18.338Z,100996.53
2023-05-09T06:37:45.984Z,100989.28
2023-05-09T06:40:14.272Z,100986.63
2023-05-09T06:42:40.819Z,101001.56
2023-05-09T06:45:07.729Z,100981.38
2023-05-09T06:47:34.405Z,100994.59
2023-05-09T06:50:00.845Z,100987.59
2023-05-09T06:52:27.371Z,100982.06
2023-05-09T06:54:54.188Z,100971.69
2023-05-09T06:57:20.900Z,100979.97
2023-05-09T06:59:47.422Z,100980.66
2023-05-09T07:02:13.901Z,100967.91
2023-05-09T07:04:40.410Z,100964.44
2023-05-09T07:07:07.424Z,100959.66
2023-05-09T07:09:33.809Z,100954.38
2023-05-09T07:12:01.575Z,100963.63
2023-05-09T07:14:28.218Z,100953.94
2023-05-09T07:17:02.222Z,100957.91
2023-05-09T07:19:36.703Z,100951.91
2023-05-09T07:22:03.137Z,100952.44
2023-05-09T07:24:29.593Z,100941.72
2023-05-09T07:26:56.000Z,100950.13
2023-05-09T07:29:22.424Z,100948.47
2023-05-09T07:31:48.849Z,100939.72
2023-05-09T07:34:16.832Z,100941.38
2023-05-09T07:36:43.510Z,100933.72
2023-05-09T07:39:10.618Z,100934.56
2023-05-09T07:41:37.039Z,100937.84
2023-05-09T07:44:03.420Z,100927.19
2023-05-09T07:46:29.900Z,100929.41
2023-05-09T07:48:56.373Z,100921.97
2023-05-09T07:51:22.890Z,100916.59
2023-05-09T07:53:49.358Z,100915.53
2023-05-09T07:56:15.760Z,100918.03
2023-05-09T07:58:42.167Z,100910.25
2023-05-09T08:01:08.535Z,100900.56
2023-05-09T08:03:35.087Z,100902.91
2023-05-09T08:06:01.610Z,100900.56
2023-05-09T08:08:28.339Z,100894.25
2023-05-09T08:10:55.676Z,100888.28
2023-05-09T08:13:22.454Z,100883.25
2023-05-09T08:15:49.345Z,100874.19
2023-05-09T08:18:16.015Z,100880.53
2023-05-09T08:20:42.467Z,100878.63
2023-05-09T08:23:09.156Z,100865.56
2023-05-09T08:25:35.646Z,100869.56
2023-05-09T08:28:02.061Z,100865.94
2023-05-09T08:30:29.500Z,100857.81
2023-05-09T08:32:56.441Z,100860.25
2023-05-09T08:35:22.930Z,100859.19
2023-05-09T08:37:49.442Z,100857.44
2023-05-09T08:40:16.973Z,100852.09
2023-05-09T08:42:45.787Z,100850.28
2023-05-09T08:45:16.603Z,100838.41
2023-05-09T08:47:43.622Z,100832.59
2023-05-09T08:50:11.593Z,100832.13
2023-05-09T08:52:38.589Z,100835.00
2023-05-09T08:55:05.504Z,100827.31
2023-05-09T08:57:35.239Z,100821.91
2023-05-09T09:00:02.004Z,100815.38
2023-05-09T09:02:29.498Z,100818.34
2023-05-09T09:04:56.387Z,100810.31
2023-05-09T09:07:23.902Z,100814.78
2023-05-09T09:09:52.070Z,100810.38
2023-05-09T09:12:21.015Z,100806.50
2023-05-09T09:14:51.535Z,100813.47
2023-05-09T09:17:23.639Z,100798.25
2023-05-09T09:19:53.411Z,100805.59
2023-05-09T09:22:20.799Z,100796.38
2023-05-09T09:24:47.463Z,100792.84
2023-05-09T09:27:13.966Z,100792.19
2023-05-09T09:29:40.366Z,100783.16
2023-05-09T09:32:07.894Z,100788.88
2023-05-09T09:34:34.363Z,100783.28
2023-05-09T09:37:00.887Z,100784.28
2023-05-09T09:39:27.288Z,100780.94
2023-05-09T09:41:53.800Z,100771.00
2023-05-09T09:44:21.732Z,100772.41
2023-05-09T09:46:52.705Z,100767.63
2023-05-09T09:49:23.106Z,100763.22
2023-05-09T09:51:53.642Z,100762.03
2023-05-09T09:54:20.394Z,100758.38
2023-05-09T09:56:54.880Z,100767.59
2023-05-09T09:59:25.042Z,100754.94
2023-05-09T10:01:54.461Z,100749.81
2023-05-09T10:04:21.228Z,100748.91
2023-05-09T10:06:54.005Z,100754.41
2023-05-09T10:09:25.460Z,100758.50
2023-05-09T10:11:53.153Z,100753.94
2023-05-09T10:14:22.112Z,100738.75
2023-05-09T10:16:49.689Z,100743.69
2023-05-09T10:19:18.921Z,100740.69
2023-05-09T10:21:52.766Z,100733.13
2023-05-09T10:24:46.945Z,100723.81
2023-05-09T10:27:14.916Z,100731.38
2023-05-09T10:29:46.323Z,100717.88
2023-05-09T10:32:20.690Z,100730.94
2023-05-09T10:34:50.038Z,100721.38
2023-05-09T10:37:17.214Z,100715.47
2023-05-09T10:39:44.272Z,100704.66
2023-05-09T10:42:13.428Z,100705.78
2023-05-09T10:44:40.061Z,100701.41
2023-05-09T10:47:07.302Z,100695.53
2023-05-09T10:49:36.334Z,100683.09
2023-05-09T10:52:03.719Z,100679.69
2023-05-09T10:54:33.451Z,100681.47
2023-05-09T10:57:00.854Z,100668.00
2023-05-09T10:59:36.308Z,100665.97
2023-05-09T11:02:04.238Z,100660.94
2023-05-09T11:04:34.790Z,100655.00
2023-05-09T11:07:01.327Z,100653.19
2023-05-09T11:09:34.549Z,100647.09
2023-05-09T11:12:10.883Z,100636.44
2023-05-09T11:14:37.215Z,100637.47
2023-05-09T11:17:08.377Z,100627.44
2023-05-09T11:19:39.202Z,100623.78
2023-05-09T11:22:17.469Z,100627.09
2023-05-09T11:24:47.866Z,100621.84
2023-05-09T11:27:15.797Z,100616.19
2023-05-09T11:29:55.395Z,100615.56
2023-05-09T11:32:27.190Z,100611.47
2023-05-09T11:35:10.102Z,100606.13
2023-05-09T11:37:46.184Z,100600.56
2023-05-09T11:40:14.284Z,100594.66
2023-05-09T11:42:44.291Z,100590.78
2023-05-09T11:45:12.431Z,100594.22
2023-05-09T11:47:39.527Z,100588.66
2023-05-09T11:50:10.705Z,100589.38
2023-05-09T11:52:38.291Z,100595.59
2023-05-09T11:55:12.233Z,100588.84
2023-05-09T11:57:49.058Z,100585.22
2023-05-09T12:00:16.371Z,100581.47
2023-05-09T12:02:44.020Z,100576.63
2023-05-09T12:05:13.144Z,100568.19
2023-05-09T12:07:41.165Z,100575.75
2023-05-09T12:10:09.028Z,100578.06
2023-05-09T12:12:37.128Z,100568.31
2023-05-09T12:15:08.275Z,100569.25
2023-05-09T12:17:37.555Z,100564.31
2023-05-09T12:20:07.152Z,100570.22
2023-05-09T12:22:34.175Z,100577.41
2023-05-09T12:25:05.504Z,100583.13
2023-05-09T12:27:33.069Z,100574.13
2023-05-09T12:30:03.876Z,100568.78
2023-05-09T12:32:32.792Z,100573.53
2023-05-09T12:35:03.305Z,100567.53
2023-05-09T12:37:32.543Z,100572.22
2023-05-09T12:40:13.059Z,100566.38
2023-05-09T12:42:43.121Z,100569.56
2023-05-09T12:45:10.610Z,100568.44
2023-05-09T12:47:38.984Z,100558.44
2023-05-09T12:50:07.008Z,100563.56
2023-05-09T12:52:34.928Z,100569.78
2023-05-09T12:55:12.635Z,100564.88
2023-05-09T12:57:41.063Z,100554.44
2023-05-09T13:00:10.097Z,100560.38
2023-05-09T13:02:38.623Z,100561.94
2023-05-09T13:05:06.965Z,100554.00
2023-05-09T13:07:45.164Z,100561.97
2023-05-09T13:10:21.892Z,100557.66
2023-05-09T13:12:49.269Z,100557.03
2023-05-09T13:15:20.157Z,100559.50
2023-05-09T13:17:47.961Z,100548.63
2023-05-09T13:20:15.148Z,100550.13
2023-05-09T13:22:41.986Z,100548.41
2023-05-09T13:25:08.778Z,100536.59
2023-05-09T13:27:35.744Z,100543.44
2023-05-09T13:30:02.192Z,100535.63
2023-05-09T13:32:28.664Z,100532.19
2023-05-09T13:34:55.142Z,100537.25
2023-05-09T13:37:21.729Z,100537.53
2023-05-09T13:39:48.661Z,100540.56
2023-05-09T13:42:15.918Z,100530.56
2023-05-09T13:44:43.233Z,100533.94
2023-05-09T13:47:11.100Z,100535.28
2023-05-09T13:49:38.537Z,100522.53
2023-05-09T13:52:05.754Z,100526.72
2023-05-09T13:54:35.416Z,100524.19
2023-05-09T13:57:05.342Z,100526.72
2023-05-09T13:59:32.284Z,100513.50
2023-05-09T14:02:00.168Z,100520.59
2023-05-09T14:04:28.111Z,100518.31
2023-05-09T14:06:58.203Z,100519.47
2023-05-09T14:09:24.727Z,100519.69
2023-05-09T14:11:52.633Z,100513.09
2023-05-09T14:14:20.692Z,100510.81
2023-05-09T14:16:47.436Z,100510.81
2023-05-09T14:19:17.774Z,100510.81
2023-05-09T14:21:47.198Z,100505.16
2023-05-09T14:24:16.159Z,100505.16
2023-05-09T14:26:43.060Z,100507.78
2023-05-09T14:29:09.585Z,100512.44
2023-05-09T14:31:36.063Z,100497.59
2023-05-09T14:34:02.744Z,100496.94
2023-05-09T14:36:29.161Z,100492.66
2023-05-09T14:38:55.606Z,100489.06
2023-05-09T14:41:22.266Z,100484.56
2023-05-09T14:43:48.958Z,100491.50
2023-05-09T14:46:15.554Z,100482.97
2023-05-09T14:48:42.049Z,100483.19
2023-05-09T14:51:08.687Z,100472.25
2023-05-09T14:53:39.725Z,100477.16
2023-05-09T14:56:06.890Z,100482.47
2023-05-09T14:58:36.290Z,100474.19
2023-05-09T15:01:04.202Z,100471.72
2023-05-09T15:03:30.702Z,100478.22
2023-05-09T15:05:58.621Z,100466.16
2023-05-09T15:08:25.486Z,100476.03
2023-05-09T15:10:51.920Z,100466.91
2023-05-09T15:13:18.455Z,100468.84
2023-05-09T15:15:44.952Z,100459.44
2023-05-09T15:18:13.235Z,100453.56
2023-05-09T15:20:39.809Z,100459.19
2023-05-09T15:23:07.671Z,100459.66
2023-05-09T15:25:34.553Z,100458.66
2023-05-09T15:28:01.204Z,100448.88
2023-05-09T15:30:27.853Z,100457.56
2023-05-09T15:32:54.325Z,100443.53
2023-05-09T15:35:20.843Z,100448.75
2023-05-09T15:37:47.699Z,100439.00
2023-05-09T15:40:14.482Z,100438.19
2023-05-09T15:42:41.147Z,100435.53
2023-05-09T15:45:08.160Z,100424.63
2023-05-09T15:47:34.623Z,100423.84
2023-05-09T15:50:01.136Z,100421.63
2023-05-09T15:52:27.845Z,100425.66
2023-05-09T15:54:56.003Z,100423.44
2023-05-09T15:57:22.997Z,100419.16
2023-05-09T15:59:49.446Z,100423.66
2023-05-09T16:02:15.910Z,100418.56
2023-05-09T16:04:43.890Z,100418.94
2023-05-09T16:07:10.335Z,100422.94
2023-05-09T16:09:37.362Z,100420.63
2023-05-09T16:12:04.434Z,100409.94
2023-05-09T16:14:31.171Z,100413.22
2023-05-09T16:16:57.665Z,100424.78
2023-05-09T16:19:24.142Z,100417.03
2023-05-09T16:21:50.752Z,100409.28
2023-05-09T16:24:17.411Z,100411.94
2023-05-09T16:26:43.881Z,100402.53
2023-05-09T16:29:11.141Z,100408.31
2023-05-09T16:31:37.739Z,100411.28
2023-05-09T16:34:04.324Z,100420.16
2023-05-09T16:36:33.604Z,100416.56
2023-05-09T16:39:00.096Z,100403.22
2023-05-09T16:41:27.050Z,100393.00
2023-05-09T16:43:53.715Z,100412.13
2023-05-09T16:46:20.214Z,100406.53
2023-05-09T16:48:46.732Z,100397.63
2023-05-09T16:51:13.205Z,100400.44
2023-05-09T16:53:39.653Z,100394.34
2023-05-09T16:56:07.409Z,100398.78
2023-05-09T16:58:35.477Z,100401.06
2023-05-09T17:01:03.693Z,100405.69
2023-05-09T17:03:30.211Z,100403.56
2023-05-09T17:05:56.631Z,100408.34
2023-05-09T17:08:23.415Z,100411.75
2023-05-09T17:10:49.820Z,100401.72
2023-05-09T17:13:16.331Z,100395.78
2023-05-09T17:15:43.169Z,100392.66
2023-05-09T17:18:09.700Z,100393.16
2023-05-09T17:20:36.241Z,100402.03
2023-05-09T17:23:02.727Z,100394.47
2023-05-09T17:25:29.187Z,100390.53
2023-05-09T17:27:55.612Z,100393.84
2023-05-09T17:30:23.193Z,100392.22
2023-05-09T17:32:50.193Z,100395.31
2023-05-09T17:35:19.308Z,100389.53
2023-05-09T17:37:46.139Z,100389.69
2023-05-09T17:40:12.878Z,100375.88
2023-05-09T17:42:39.376Z,100374.53
2023-05-09T17:45:06.431Z,100381.47
2023-05-09T17:47:32.968Z,100376.00
2023-05-09T17:49:59.495Z,100369.25
2023-05-09T17:52:26.005Z,100369.94
2023-05-09T17:54:52.506Z,100369.09
2023-05-09T17:57:18.927Z,100367.13
2023-05-09T17:59:47.858Z,100367.78
2023-05-09T18:02:14.589Z,100372.06
2023-05-09T18:04:41.060Z,100367.31
2023-05-09T18:07:08.296Z,100368.94
2023-05-09T18:09:34.769Z,100382.28
2023-05-09T18:12:01.228Z,100366.13
2023-05-09T18:14:28.412Z,100367.13
2023-05-09T18:16:54.872Z,100376.16
2023-05-09T18:19:21.258Z,100359.34
2023-05-09T18:21:47.696Z,100360.00
2023-05-09T18:24:16.818Z,100363.47
2023-05-09T18:26:43.462Z,100368.41
2023-05-09T18:29:09.878Z,100363.97
2023-05-09T18:31:38.812Z,100362.50
2023-05-09T18:34:05.938Z,100369.75
2023-05-09T18:36:32.594Z,100368.41
2023-05-09T18:38:59.392Z,100373.31
2023-05-09T18:41:26.369Z,100372.56
2023-05-09T18:43:53.115Z,100380.69
2023-05-09T18:46:22.215Z,100382.84
2023-05-09T18:48:50.999Z,100377.06
2023-05-09T18:51:18.965Z,100380.63
2023-05-09T18:53:47.209Z,100384.88
2023-05-09T18:56:14.317Z,100388.63
2023-05-09T18:58:41.470Z,100379.56
2023-05-09T19:01:11.358Z,100381.84
2023-05-09T19:03:45.664Z,100380.63
2023-05-09T19:06:14.394Z,100375.53
2023-05-09T19:08:42.176Z,100382.03
2023-05-09T19:11:09.826Z,100372.25
2023-05-09T19:13:38.352Z,100368.50
2023-05-09T19:16:06.692Z,100371.78
2023-05-09T19:18:33.704Z,100372.28
2023-05-09T19:21:00.425Z,100375.25
2023-05-09T19:23:26.996Z,100384.53
2023-05-09T19:25:53.993Z,100384.44
2023-05-09T19:28:21.239Z,100387.63
2023-05-09T19:30:47.689Z,100380.22
2023-05-09T19:33:14.153Z,100377.63
2023-05-09T19:35:44.185Z,100390.88
2023-05-09T19:38:13.897Z,100385.03
2023-05-09T19:40:40.955Z,100384.81
2023-05-09T19:43:07.437Z,100377.78
2023-05-09T19:45:33.886Z,100382.31
2023-05-09T19:48:00.671Z,100379.03
2023-05-09T19:50:27.203Z,100378.88
2023-05-09T19:52:53.688Z,100380.53
2023-05-09T19:55:20.308Z,100388.09
2023-05-09T19:57:47.297Z,100389.06
2023-05-09T20:00:14.384Z,100379.56
2023-05-09T20:02:41.181Z,100379.25
2023-05-09T20:05:08.109Z,100384.50
2023-05-09T20:07:34.552Z,100388.50
2023-05-09T20:10:01.044Z,100378.28
2023-05-09T20:12:29.909Z,100378.28
2023-05-09T20:14:56.752Z,100384.81
2023-05-09T20:17:23.235Z,100384.78
2023-05-09T20:19:49.696Z,100380.63
2023-05-09T20:22:16.152Z,100378.56
2023-05-09T20:24:42.712Z,100383.91
2023-05-09T20:27:09.107Z,100371.31
2023-05-09T20:29:35.518Z,100365.66
2023-05-09T20:32:02.130Z,100370.59
2023-05-09T20:34:28.617Z,100372.53
2023-05-09T20:36:55.171Z,100368.72
2023-05-09T20:39:21.791Z,100372.91
2023-05-09T20:41:49.523Z,100369.41
2023-05-09T20:44:17.644Z,100370.94
2023-05-09T20:46:45.847Z,100370.81
2023-05-09T20:49:12.915Z,100365.72
2023-05-09T20:51:39.382Z,100371.22
2023-05-09T20:54:05.970Z,100373.69
2023-05-09T20:56:35.245Z,100374.91
2023-05-09T20:59:04.308Z,100377.00
2023-05-09T21:01:32.484Z,100378.66
2023-05-09T21:03:59.364Z,100371.91
2023-05-09T21:06:25.859Z,100374.22
2023-05-09T21:08:52.412Z,100375.31
2023-05-09T21:11:18.838Z,100374.06
2023-05-09T21:13:45.297Z,100377.88
2023-05-09T21:16:11.736Z,100376.06
2023-05-09T21:18:38.156Z,100378.03
2023-05-09T21:21:09.900Z,100377.34
2023-05-09T21:23:36.362Z,100375.06
2023-05-09T21:26:02.791Z,100379.19
2023-05-09T21:28:29.880Z,100381.22
2023-05-09T21:30:56.416Z,100377.97
2023-05-09T21:33:22.927Z,100377.00
2023-05-09T21:35:49.388Z,100379.78
2023-05-09T21:38:15.835Z,100384.06
2023-05-09T21:40:42.229Z,100374.13
2023-05-09T21:43:08.715Z,100369.03
2023-05-09T21:45:35.177Z,100372.72
2023-05-09T21:48:01.738Z,100370.78
2023-05-09T21:50:28.284Z,100362.75
2023-05-09T21:52:56.200Z,100371.88
2023-05-09T21:55:22.915Z,100367.31
2023-05-09T21:57:49.378Z,100372.28
2023-05-09T22:00:16.911Z,100377.25
2023-05-09T22:02:43.804Z,100362.91
2023-05-09T22:05:11.145Z,100367.03
2023-05-09T22:07:37.582Z,100366.75
2023-05-09T22:10:05.225Z,100362.22
2023-05-09T22:12:31.869Z,100360.56
2023-05-09T22:14:58.348Z,100372.81
2023-05-09T22:17:24.954Z,100370.09
2023-05-09T22:19:51.938Z,100373.16
2023-05-09T22:22:18.427Z,100371.50
2023-05-09T22:24:44.920Z,100372.56
2023-05-09T22:27:11.517Z,100366.09
2023-05-09T22:29:38.156Z,100373.41
2023-05-09T22:32:07.730Z,100364.34
2023-05-09T22:34:35.492Z,100372.72
2023-05-09T22:37:01.920Z,100368.59
2023-05-09T22:39:28.398Z,100371.38
2023-05-09T22:41:54.803Z,100380.63
2023-05-09T22:44:21.279Z,100372.63
2023-05-09T22:46:47.848Z,100372.22
2023-05-09T22:49:14.252Z,100375.97
2023-05-09T22:51:40.662Z,100370.72
2023-05-09T22:54:07.108Z,100372.00
2023-05-09T22:56:33.644Z,100372.13
2023-05-09T22:59:00.177Z,100364.81
2023-05-09T23:01:27.542Z,100367.44
2023-05-09T23:03:53.969Z,100367.97
2023-05-09T23:06:20.559Z,100366.59
2023-05-09T23:08:47.070Z,100368.53
2023-05-09T23:11:13.501Z,100369.06
2023-05-09T23:13:40.063Z,100368.53
2023-05-09T23:16:06.533Z,100362.03
2023-05-09T23:18:32.944Z,100362.72
2023-05-09T23:20:59.372Z,100363.81
2023-05-09T23:23:25.832Z,100376.06
2023-05-09T23:25:52.251Z,100368.34
2023-05-09T23:28:20.352Z,100364.59
2023-05-09T23:30:46.878Z,100367.53
2023-05-09T23:33:13.367Z,100356.06
2023-05-09T23:35:39.812Z,100356.19
2023-05-09T23:38:06.384Z,100363.09
2023-05-09T23:40:33.937Z,100362.56
2023-05-09T23:43:00.652Z,100359.53
2023-05-09T23:45:27.626Z,100359.94
2023-05-09T23:47:54.174Z,100357.19
2023-05-09T23:50:20.846Z,100355.75
2023-05-09T23:52:49.296Z,100354.78
2023-05-09T23:55:15.730Z,100353.53
2023-05-09T23:57:42.224Z,100355.72
